地図

経路データ

SID SEASON NUMBER BASIN SUBBASIN NAME ISO_TIME NATURE LAT LON WMO_WIND WMO_PRES WMO_AGENCY TRACK_TYPE DIST2LAND LANDFALL IFLAG USA_AGENCY USA_ATCF_ID USA_LAT USA_LON USA_RECORD USA_STATUS USA_WIND USA_PRES USA_SSHS USA_R34_NE USA_R34_SE USA_R34_SW USA_R34_NW USA_R50_NE USA_R50_SE USA_R50_SW USA_R50_NW USA_R64_NE USA_R64_SE USA_R64_SW USA_R64_NW USA_POCI USA_ROCI USA_RMW USA_EYE TOKYO_LAT TOKYO_LON TOKYO_GRADE TOKYO_WIND TOKYO_PRES TOKYO_R50_DIR TOKYO_R50_LONG TOKYO_R50_SHORT TOKYO_R30_DIR TOKYO_R30_LONG TOKYO_R30_SHORT TOKYO_LAND CMA_LAT CMA_LON CMA_CAT CMA_WIND CMA_PRES HKO_LAT HKO_LON HKO_CAT HKO_WIND HKO_PRES NEWDELHI_LAT NEWDELHI_LON NEWDELHI_GRADE NEWDELHI_WIND NEWDELHI_PRES NEWDELHI_CI NEWDELHI_DP NEWDELHI_POCI REUNION_LAT REUNION_LON REUNION_TYPE REUNION_WIND REUNION_PRES REUNION_TNUM REUNION_CI REUNION_RMW REUNION_R34_NE REUNION_R34_SE REUNION_R34_SW REUNION_R34_NW REUNION_R50_NE REUNION_R50_SE REUNION_R50_SW REUNION_R50_NW REUNION_R64_NE REUNION_R64_SE REUNION_R64_SW REUNION_R64_NW BOM_LAT BOM_LON BOM_TYPE BOM_WIND BOM_PRES BOM_TNUM BOM_CI BOM_RMW BOM_R34_NE BOM_R34_SE BOM_R34_SW BOM_R34_NW BOM_R50_NE BOM_R50_SE BOM_R50_SW BOM_R50_NW BOM_R64_NE BOM_R64_SE BOM_R64_SW BOM_R64_NW BOM_ROCI BOM_POCI BOM_EYE BOM_POS_METHOD BOM_PRES_METHOD NADI_LAT NADI_LON NADI_CAT NADI_WIND NADI_PRES WELLINGTON_LAT WELLINGTON_LON WELLINGTON_WIND WELLINGTON_PRES DS824_LAT DS824_LON DS824_STAGE DS824_WIND DS824_PRES TD9636_LAT TD9636_LON TD9636_STAGE TD9636_WIND TD9636_PRES TD9635_LAT TD9635_LON TD9635_WIND TD9635_PRES TD9635_ROCI NEUMANN_LAT NEUMANN_LON NEUMANN_CLASS NEUMANN_WIND NEUMANN_PRES MLC_LAT MLC_LON MLC_CLASS MLC_WIND MLC_PRES USA_GUST BOM_GUST BOM_GUST_PER REUNION_GUST REUNION_GUST_PER USA_SEAHGT USA_SEARAD_NE USA_SEARAD_SE USA_SEARAD_SW USA_SEARAD_NW STORM_SPEED STORM_DIR
1944134N16142 1944 28 WP MM NOT_NAMED 1944-05-12 12:00:00 NR 15.6000 141.800 main 1800 1772 __________O___ -1 15.6000 141.800 2 8 305
1944134N16142 1944 28 WP MM NOT_NAMED 1944-05-12 15:00:00 NR 15.8253 141.459 main 1772 1737 __________P___ -1 15.8253 141.459 2 8 306
1944134N16142 1944 28 WP MM NOT_NAMED 1944-05-12 18:00:00 NR 16.0703 141.115 main 1737 1711 __________P___ -1 16.0703 141.115 2 9 308
1944134N16142 1944 28 WP MM NOT_NAMED 1944-05-12 21:00:00 NR 16.3551 140.763 main 1714 1681 __________P___ -1 16.3551 140.763 2 9 313
1944134N16142 1944 28 WP MM NOT_NAMED 1944-05-13 00:00:00 NR 16.7000 140.400 main 1681 1653 __________O___ -1 16.7000 140.400 2 10 317
1944134N16142 1944 28 WP MM NOT_NAMED 1944-05-13 03:00:00 NR 17.1175 140.024 main 1653 1637 __________P___ -1 17.1175 140.024 2 12 321
1944134N16142 1944 28 WP MM NOT_NAMED 1944-05-13 06:00:00 NR 17.5900 139.643 main 1631 1617 __________P___ -1 17.5900 139.643 2 12 323
1944134N16142 1944 28 WP MM NOT_NAMED 1944-05-13 09:00:00 NR 18.0925 139.265 main 1621 1600 __________P___ -1 18.0925 139.265 2 12 325
1944134N16142 1944 28 WP MM NOT_NAMED 1944-05-13 12:00:00 NR 18.6000 138.900 main 1604 1557 __________O___ -1 18.6000 138.900 2 12 325
1944134N16142 1944 28 WP MM NOT_NAMED 1944-05-13 15:00:00 NR 19.0667 138.548 main 1542 1488 __________P___ -1 19.0667 138.548 2 11 325
1944134N16142 1944 28 WP MM NOT_NAMED 1944-05-13 18:00:00 NR 19.5348 138.212 main 1488 1424 __________P___ -1 19.5348 138.212 2 11 327
1944134N16142 1944 28 WP MM NOT_NAMED 1944-05-13 21:00:00 NR 20.0105 137.895 main 1424 1360 __________P___ -1 20.0105 137.895 2 11 329
1944134N16142 1944 28 WP MM NOT_NAMED 1944-05-14 00:00:00 NR 20.5000 137.600 main 1360 1296 __________O___ -1 20.5000 137.600 2 12 330
1944134N16142 1944 28 WP MM NOT_NAMED 1944-05-14 03:00:00 NR 21.0106 137.284 main 1296 1232 __________P___ -1 21.0106 137.284 2 12 331
1944134N16142 1944 28 WP MM NOT_NAMED 1944-05-14 06:00:00 NR 21.5351 136.996 main 1232 1173 __________P___ -1 21.5351 136.996 2 12 335
1944134N16142 1944 28 WP MM NOT_NAMED 1944-05-14 09:00:00 NR 22.0669 136.760 main 1163 1105 __________P___ -1 22.0669 136.760 2 11 341
1944134N16142 1944 28 WP MM NOT_NAMED 1944-05-14 12:00:00 NR 22.6000 136.600 main 1105 1051 __________O___ -1 22.6000 136.600 2 11 348
1944134N16142 1944 28 WP MM NOT_NAMED 1944-05-14 15:00:00 NR 23.1206 136.521 main 1051 1004 __________P___ -1 23.1206 136.521 2 11 356
1944134N16142 1944 28 WP MM NOT_NAMED 1944-05-14 18:00:00 NR 23.6421 136.522 main 1004 961 __________P___ -1 23.6421 136.522 2 11 3
1944134N16142 1944 28 WP MM NOT_NAMED 1944-05-14 21:00:00 NR 24.1676 136.587 main 952 910 __________P___ -1 24.1676 136.587 2 11 9
1944134N16142 1944 28 WP MM NOT_NAMED 1944-05-15 00:00:00 NR 24.7000 136.700 main 910 870 __________O___ -1 24.7000 136.700 2 11 11
1944134N16142 1944 28 WP MM NOT_NAMED 1944-05-15 03:00:00 NR 25.2589 136.812 main 861 823 __________P___ -1 25.2589 136.812 2 12 12
1944134N16142 1944 28 WP MM NOT_NAMED 1944-05-15 06:00:00 NR 25.8223 136.968 main 829 794 __________P___ -1 25.8223 136.968 2 12 16
1944134N16142 1944 28 WP MM NOT_NAMED 1944-05-15 09:00:00 NR 26.3745 137.165 main 792 741 __________P___ -1 26.3745 137.165 2 12 20
1944134N16142 1944 28 WP MM NOT_NAMED 1944-05-15 12:00:00 NR 26.9000 137.400 main 741 693 __________O___ -1 26.9000 137.400 2 11 24
1944134N16142 1944 28 WP MM NOT_NAMED 1944-05-15 15:00:00 NR 27.3876 137.668 main 693 656 __________P___ -1 27.3876 137.668 2 11 28
1944134N16142 1944 28 WP MM NOT_NAMED 1944-05-15 18:00:00 NR 27.8432 137.963 main 659 616 __________P___ -1 27.8432 137.963 2 10 31
1944134N16142 1944 28 WP MM NOT_NAMED 1944-05-15 21:00:00 NR 28.2772 138.276 main 616 588 __________P___ -1 28.2772 138.276 2 10 33
1944134N16142 1944 28 WP MM NOT_NAMED 1944-05-16 00:00:00 NR 28.7000 138.600 main 588 __________O___ -1 28.7000 138.600 2 10 34

デジタル台風データ・検索

IBTrACS Databaseについて

本データベースは、米国NOAAが公開する1842年以降の世界の熱帯低気圧のベストトラックデータアーカイブInternational Best Track Archive for Climate Stewardship (IBTrACS)を、ウェブで閲覧しやすい形式に変換したものです。

最終更新日:2021-10-25